createdAt,value
2019-01-21T00:00:02.371Z,-3.56
2019-01-21T00:01:02.688Z,-3.56
2019-01-21T00:02:03.060Z,-3.5
2019-01-21T00:03:02.370Z,-3.5
2019-01-21T00:04:02.686Z,-3.5
2019-01-21T00:05:03.008Z,-3.62
2019-01-21T00:06:02.277Z,-3.68
2019-01-21T00:07:02.700Z,-3.56
2019-01-21T00:08:03.038Z,-3.62
2019-01-21T00:09:02.350Z,-3.68
2019-01-21T00:10:02.602Z,-3.81
2019-01-21T00:11:02.920Z,-3.75
2019-01-21T00:12:03.296Z,-3.75
2019-01-21T00:13:02.663Z,-3.75
2019-01-21T00:14:02.922Z,-3.81
2019-01-21T00:15:03.247Z,-3.81
2019-01-21T00:16:02.539Z,-3.81
2019-01-21T00:17:02.856Z,-3.75
2019-01-21T00:18:03.229Z,-3.68
2019-01-21T00:19:02.526Z,-3.62
2019-01-21T00:20:02.842Z,-3.56
2019-01-21T00:21:03.176Z,-3.5
2019-01-21T00:22:02.450Z,-3.56
2019-01-21T00:23:02.836Z,-3.5
2019-01-21T00:24:03.176Z,-3.56
2019-01-21T00:25:02.433Z,-3.68
2019-01-21T00:26:02.700Z,-3.68
2019-01-21T00:27:03.012Z,-3.62
2019-01-21T00:28:02.447Z,-3.56
2019-01-21T00:29:02.860Z,-3.62
2019-01-21T00:30:03.183Z,-3.43
2019-01-21T00:31:02.448Z,-3.5
2019-01-21T00:32:02.763Z,-3.43
2019-01-21T00:33:03.146Z,-3.62
2019-01-21T00:34:02.475Z,-3.56
2019-01-21T00:35:02.759Z,-3.5
2019-01-21T00:36:03.096Z,-3.5
2019-01-21T00:37:03.422Z,-3.5
2019-01-21T00:38:03.085Z,-3.5
2019-01-21T00:39:02.421Z,-3.5
2019-01-21T00:40:02.694Z,-3.43
2019-01-21T00:41:03.007Z,-3.43
2019-01-21T00:42:02.296Z,-3.37
2019-01-21T00:43:02.616Z,-3.43
2019-01-21T00:44:02.986Z,-3.37
2019-01-21T00:45:02.294Z,-3.37
2019-01-21T00:46:02.606Z,-3.37
2019-01-21T00:47:02.938Z,-3.43
2019-01-21T00:48:03.298Z,-3.37
2019-01-21T00:49:02.612Z,-3.43
2019-01-21T00:50:02.951Z,-3.5
2019-01-21T00:51:03.236Z,-3.5
2019-01-21T00:52:02.555Z,-3.5
2019-01-21T00:53:02.896Z,-3.43
2019-01-21T00:54:03.163Z,-3.43
2019-01-21T00:55:02.464Z,-3.43
2019-01-21T00:56:02.765Z,-3.43
2019-01-21T00:57:03.101Z,-3.5
2019-01-21T00:58:02.385Z,-3.43
2019-01-21T00:59:02.681Z,-3.43
2019-01-21T01:00:03.028Z,-3.37
2019-01-21T01:01:02.288Z,-3.37
2019-01-21T01:02:02.610Z,-3.43
2019-01-21T01:03:02.918Z,-3.5
2019-01-21T01:04:03.259Z,-3.5
2019-01-21T01:05:02.522Z,-3.43
2019-01-21T01:06:02.880Z,-3.31
2019-01-21T01:07:03.158Z,-3.37
2019-01-21T01:08:03.460Z,-3.37
2019-01-21T01:09:02.750Z,-3.37
2019-01-21T01:10:02.997Z,-3.43
2019-01-21T01:11:02.357Z,-3.37
2019-01-21T01:12:02.690Z,-3.37
2019-01-21T01:13:03.000Z,-3.37
2019-01-21T01:14:02.284Z,-3.37
2019-01-21T01:15:02.606Z,-3.43
2019-01-21T01:16:02.995Z,-3.43
2019-01-21T01:17:02.290Z,-3.5
2019-01-21T01:18:02.666Z,-3.5
2019-01-21T01:19:02.930Z,-3.43
2019-01-21T01:20:03.248Z,-3.5
2019-01-21T01:21:02.557Z,-3.56
2019-01-21T01:22:02.853Z,-3.75
2019-01-21T01:23:03.190Z,-3.62
2019-01-21T01:24:02.498Z,-3.56
2019-01-21T01:25:02.773Z,-3.5
2019-01-21T01:26:03.185Z,-3.5
2019-01-21T01:27:02.441Z,-3.43
2019-01-21T01:28:02.765Z,-3.37
2019-01-21T01:29:03.087Z,-3.5
2019-01-21T01:30:02.380Z,-3.5
2019-01-21T01:31:02.696Z,-3.5
2019-01-21T01:32:03.028Z,-3.56
2019-01-21T01:33:02.289Z,-3.56
2019-01-21T01:34:02.608Z,-3.56
2019-01-21T01:35:02.971Z,-3.43
2019-01-21T01:36:02.277Z,-3.43
2019-01-21T01:37:02.663Z,-3.56
2019-01-21T01:38:03.006Z,-3.56
2019-01-21T01:39:02.338Z,-3.56
2019-01-21T01:40:02.608Z,-3.5
2019-01-21T01:41:02.929Z,-3.37
2019-01-21T01:42:03.300Z,-3.31
2019-01-21T01:43:02.701Z,-3.31
2019-01-21T01:44:03.082Z,-3.31
2019-01-21T01:45:02.367Z,-3.37
2019-01-21T01:46:02.681Z,-3.31
2019-01-21T01:47:03.934Z,-3.37
2019-01-21T01:48:03.242Z,-3.31
2019-01-21T01:49:02.526Z,-3.31
2019-01-21T01:50:02.860Z,-3.31
2019-01-21T01:51:03.155Z,-3.43
2019-01-21T01:52:02.687Z,-3.43
2019-01-21T01:53:03.025Z,-3.43
2019-01-21T01:54:02.295Z,-3.37
2019-01-21T01:55:02.606Z,-3.43
2019-01-21T01:56:02.925Z,-3.5
2019-01-21T01:57:03.252Z,-3.5
2019-01-21T01:58:02.621Z,-3.5
2019-01-21T01:59:02.943Z,-3.43
2019-01-21T02:00:03.266Z,-3.43
2019-01-21T02:01:02.857Z,-3.5
2019-01-21T02:02:03.175Z,-3.5
2019-01-21T02:03:02.511Z,-3.43
2019-01-21T02:04:03.716Z,-3.43
2019-01-21T02:05:03.888Z,-3.5
2019-01-21T02:06:03.163Z,-3.62
2019-01-21T02:07:02.489Z,-3.62
2019-01-21T02:08:03.008Z,-3.62
2019-01-21T02:09:02.821Z,-3.62
2019-01-21T02:10:03.347Z,-3.5
2019-01-21T02:11:02.786Z,-3.5
2019-01-21T02:12:03.318Z,-3.5
2019-01-21T02:13:02.798Z,-3.5
2019-01-21T02:14:03.502Z,-3.37
2019-01-21T02:15:03.653Z,-3.43
2019-01-21T02:16:03.816Z,-3.37
2019-01-21T02:17:03.091Z,-3.37
2019-01-21T02:18:02.698Z,-3.37
2019-01-21T02:19:03.054Z,-3.31
2019-01-21T02:20:02.377Z,-3.31
2019-01-21T02:21:02.683Z,-3.31
2019-01-21T02:22:03.004Z,-3.31
2019-01-21T02:23:02.275Z,-3.31
2019-01-21T02:24:03.551Z,-3.31
2019-01-21T02:25:02.870Z,-3.25
2019-01-21T02:26:02.440Z,-3.31
2019-01-21T02:27:02.762Z,-3.31
2019-01-21T02:28:03.179Z,-3.31
2019-01-21T02:29:02.461Z,-3.31
2019-01-21T02:30:02.935Z,-3.37
2019-01-21T02:31:03.249Z,-3.37
2019-01-21T02:32:02.620Z,-3.43
2019-01-21T02:33:02.986Z,-3.31
2019-01-21T02:34:02.276Z,-3.31
2019-01-21T02:35:02.954Z,-3.31
2019-01-21T02:36:02.315Z,-3.31
2019-01-21T02:37:02.603Z,-3.5
2019-01-21T02:38:02.926Z,-3.37
2019-01-21T02:39:03.220Z,-3.37
2019-01-21T02:40:02.572Z,-3.31
2019-01-21T02:41:02.855Z,-3.31
2019-01-21T02:42:03.205Z,-3.25
2019-01-21T02:43:02.578Z,-3.31
2019-01-21T02:44:02.977Z,-3.31
2019-01-21T02:45:02.379Z,-3.31
2019-01-21T02:46:02.688Z,-3.31
2019-01-21T02:47:03.009Z,-3.31
2019-01-21T02:48:02.332Z,-3.31
2019-01-21T02:49:02.703Z,-3.25
2019-01-21T02:50:03.059Z,-3.18
2019-01-21T02:51:02.373Z,-3.37
2019-01-21T02:52:03.021Z,-3.37
2019-01-21T02:53:02.416Z,-3.37
2019-01-21T02:54:02.701Z,-3.31
2019-01-21T02:55:03.056Z,-3.25
2019-01-21T02:56:02.399Z,-3.18
2019-01-21T02:57:02.703Z,-3.25
2019-01-21T02:58:03.007Z,-3.31
2019-01-21T02:59:03.250Z,-3.25
2019-01-21T03:00:02.528Z,-3.25
2019-01-21T03:01:02.906Z,-3.18
2019-01-21T03:02:04.836Z,-3.18
2019-01-21T03:03:03.405Z,-3.25
2019-01-21T03:04:05.327Z,-3.25
2019-01-21T03:05:02.616Z,-3.43
2019-01-21T03:06:02.975Z,-3.43
2019-01-21T03:07:02.313Z,-3.43
2019-01-21T03:08:02.609Z,-3.43
2019-01-21T03:09:03.274Z,-3.31
2019-01-21T03:10:02.636Z,-3.31
2019-01-21T03:11:02.918Z,-3.37
2019-01-21T03:12:03.335Z,-3.31
2019-01-21T03:13:02.603Z,-3.37
2019-01-21T03:14:02.917Z,-3.37
2019-01-21T03:15:03.253Z,-3.37
2019-01-21T03:16:02.525Z,-3.25
2019-01-21T03:17:02.877Z,-3.18
2019-01-21T03:18:07.869Z,-3.25
2019-01-21T03:19:02.435Z,-3.25
2019-01-21T03:20:02.818Z,-3.18
2019-01-21T03:21:03.089Z,-3.25
2019-01-21T03:22:02.431Z,-3.31
2019-01-21T03:23:03.570Z,-3.43
2019-01-21T03:24:02.847Z,-3.81
2019-01-21T03:25:03.158Z,-3.75
2019-01-21T03:26:02.772Z,-3.5
2019-01-21T03:27:03.151Z,-3.56
2019-01-21T03:28:02.441Z,-3.5
2019-01-21T03:29:02.784Z,-3.56
2019-01-21T03:30:03.093Z,-3.62
2019-01-21T03:31:02.382Z,-3.56
2019-01-21T03:32:02.696Z,-3.62
2019-01-21T03:33:03.030Z,-3.5
2019-01-21T03:34:02.487Z,-3.31
2019-01-21T03:35:02.826Z,-3.31
2019-01-21T03:36:03.184Z,-3.31
2019-01-21T03:37:02.450Z,-3.25
2019-01-21T03:38:02.871Z,-3.25
2019-01-21T03:39:03.169Z,-3.31
2019-01-21T03:40:02.449Z,-3.31
2019-01-21T03:41:02.767Z,-3.31
2019-01-21T03:42:03.105Z,-3.43
2019-01-21T03:43:02.756Z,-3.43
2019-01-21T03:44:03.106Z,-3.37
2019-01-21T03:45:02.367Z,-3.43
2019-01-21T03:46:02.687Z,-3.43
2019-01-21T03:47:03.012Z,-3.43
2019-01-21T03:48:02.286Z,-3.43
2019-01-21T03:49:02.693Z,-3.62
2019-01-21T03:50:03.008Z,-3.62
2019-01-21T03:51:02.349Z,-3.5
2019-01-21T03:52:02.686Z,-3.43
2019-01-21T03:53:03.075Z,-3.43
2019-01-21T03:54:02.386Z,-3.37
2019-01-21T03:55:02.686Z,-3.37
2019-01-21T03:56:03.003Z,-3.5
2019-01-21T03:57:02.282Z,-3.43
2019-01-21T03:58:02.603Z,-3.37
2019-01-21T03:59:03.027Z,-3.25
2019-01-21T04:00:02.608Z,-3.25
2019-01-21T04:01:02.936Z,-3.25
2019-01-21T04:02:03.258Z,-3.25
2019-01-21T04:03:02.519Z,-3.37
2019-01-21T04:04:02.903Z,-3.31
2019-01-21T04:05:03.159Z,-3.31
2019-01-21T04:06:02.441Z,-3.31
2019-01-21T04:07:02.770Z,-3.5
2019-01-21T04:08:03.081Z,-3.5
2019-01-21T04:09:02.366Z,-3.5
2019-01-21T04:10:02.713Z,-3.56
2019-01-21T04:11:03.013Z,-3.43
2019-01-21T04:12:02.279Z,-3.37
2019-01-21T04:13:02.607Z,-3.31
2019-01-21T04:14:02.921Z,-3.25
2019-01-21T04:15:03.311Z,-3.25
2019-01-21T04:16:02.628Z,-3.25
2019-01-21T04:17:03.250Z,-3.37
2019-01-21T04:18:02.547Z,-3.37
2019-01-21T04:19:02.934Z,-3.31
2019-01-21T04:20:03.303Z,-3.37
2019-01-21T04:21:02.620Z,-3.37
2019-01-21T04:22:02.952Z,-3.31
2019-01-21T04:23:02.286Z,-3.37
2019-01-21T04:24:02.625Z,-3.37
2019-01-21T04:25:03.019Z,-3.43
2019-01-21T04:26:02.366Z,-3.37
2019-01-21T04:27:02.695Z,-3.37
2019-01-21T04:28:03.018Z,-3.37
2019-01-21T04:29:02.281Z,-3.37
2019-01-21T04:30:02.630Z,-3.43
2019-01-21T04:31:02.946Z,-3.56
2019-01-21T04:32:04.146Z,-3.5
2019-01-21T04:33:02.470Z,-3.5
2019-01-21T04:34:03.220Z,-3.43
2019-01-21T04:35:02.535Z,-3.37
2019-01-21T04:36:02.906Z,-3.31
2019-01-21T04:37:03.242Z,-3.31
2019-01-21T04:38:02.535Z,-3.31
2019-01-21T04:39:02.853Z,-3.25
2019-01-21T04:40:03.222Z,-3.25
2019-01-21T04:41:02.534Z,-3.25
2019-01-21T04:42:03.069Z,-3.37
2019-01-21T04:43:02.368Z,-3.43
2019-01-21T04:44:02.681Z,-3.56
2019-01-21T04:45:03.011Z,-3.56
2019-01-21T04:46:02.298Z,-3.37
2019-01-21T04:47:02.630Z,-3.43
2019-01-21T04:48:02.918Z,-3.43
2019-01-21T04:49:03.303Z,-3.43
2019-01-21T04:50:02.613Z,-3.31
2019-01-21T04:51:03.186Z,-3.37
2019-01-21T04:52:02.506Z,-3.43
2019-01-21T04:53:02.760Z,-3.5
2019-01-21T04:54:03.080Z,-3.5
2019-01-21T04:55:02.376Z,-3.5
2019-01-21T04:56:02.706Z,-3.43
2019-01-21T04:57:03.078Z,-3.37
2019-01-21T04:58:02.377Z,-3.31
2019-01-21T04:59:02.843Z,-3.37
2019-01-21T05:00:03.171Z,-3.5
2019-01-21T05:01:02.429Z,-3.5
2019-01-21T05:02:02.846Z,-3.37
2019-01-21T05:03:03.190Z,-3.31
2019-01-21T05:04:02.525Z,-3.37
2019-01-21T05:05:02.920Z,-3.37
2019-01-21T05:06:03.352Z,-3.37
2019-01-21T05:07:02.765Z,-3.37
2019-01-21T05:08:02.548Z,-3.43
2019-01-21T05:09:02.860Z,-3.43
2019-01-21T05:10:03.178Z,-3.37
2019-01-21T05:11:02.450Z,-3.31
2019-01-21T05:12:02.763Z,-3.25
2019-01-21T05:13:03.182Z,-3.25
2019-01-21T05:14:02.596Z,-3.37
2019-01-21T05:15:02.914Z,-3.37
2019-01-21T05:16:02.535Z,-3.37
2019-01-21T05:17:02.895Z,-3.43
2019-01-21T05:18:03.215Z,-3.37
2019-01-21T05:19:02.587Z,-3.31
2019-01-21T05:20:02.928Z,-3.31
2019-01-21T05:21:03.255Z,-3.31
2019-01-21T05:22:02.545Z,-3.25
2019-01-21T05:23:02.871Z,-3.43
2019-01-21T05:24:02.354Z,-3.37
2019-01-21T05:25:02.707Z,-3.5
2019-01-21T05:26:03.259Z,-3.5
2019-01-21T05:27:02.518Z,-3.37
2019-01-21T05:28:02.872Z,-3.43
2019-01-21T05:29:03.185Z,-3.43
2019-01-21T05:30:02.526Z,-3.37
2019-01-21T05:31:02.839Z,-3.31
2019-01-21T05:32:03.179Z,-3.31
2019-01-21T05:33:02.844Z,-3.31
2019-01-21T05:34:03.220Z,-3.25
2019-01-21T05:35:02.527Z,-3.31
2019-01-21T05:36:02.909Z,-3.31
2019-01-21T05:37:03.256Z,-3.37
2019-01-21T05:38:02.531Z,-3.43
2019-01-21T05:39:03.780Z,-3.37
2019-01-21T05:40:03.164Z,-3.43
2019-01-21T05:41:02.453Z,-3.5
2019-01-21T05:42:02.772Z,-3.43
2019-01-21T05:43:03.086Z,-3.31
2019-01-21T05:44:03.299Z,-3.31
2019-01-21T05:45:02.686Z,-3.31
2019-01-21T05:46:03.010Z,-3.31
2019-01-21T05:47:02.287Z,-3.31
2019-01-21T05:48:02.604Z,-3.31
2019-01-21T05:49:02.938Z,-3.31
2019-01-21T05:50:03.278Z,-3.25
2019-01-21T05:51:02.619Z,-3.25
2019-01-21T05:52:02.973Z,-3.25
2019-01-21T05:53:02.297Z,-3.31
2019-01-21T05:54:02.606Z,-3.25
2019-01-21T05:55:02.995Z,-3.31
2019-01-21T05:56:02.290Z,-3.31
2019-01-21T05:57:02.611Z,-3.37
2019-01-21T05:58:02.929Z,-3.31
2019-01-21T05:59:03.295Z,-3.25
2019-01-21T06:00:02.664Z,-3.25
2019-01-21T06:01:02.535Z,-3.25
2019-01-21T06:02:02.843Z,-3.25
2019-01-21T06:03:03.159Z,-3.25
2019-01-21T06:04:02.449Z,-3.37
2019-01-21T06:05:02.870Z,-3.43
2019-01-21T06:06:03.221Z,-3.31
2019-01-21T06:07:02.533Z,-3.31
2019-01-21T06:08:02.899Z,-3.31
2019-01-21T06:09:03.262Z,-3.31
2019-01-21T06:10:02.534Z,-3.31
2019-01-21T06:11:02.925Z,-3.37
2019-01-21T06:12:03.256Z,-3.31
2019-01-21T06:13:02.507Z,-3.37
2019-01-21T06:14:02.782Z,-3.37
2019-01-21T06:15:03.094Z,-3.37
2019-01-21T06:16:02.373Z,-3.31
2019-01-21T06:17:02.687Z,-3.31
2019-01-21T06:18:03.019Z,-3.31
2019-01-21T06:19:02.289Z,-3.31
2019-01-21T06:20:02.605Z,-3.31
2019-01-21T06:21:02.989Z,-3.31
2019-01-21T06:22:02.271Z,-3.31
2019-01-21T06:23:02.595Z,-3.31
2019-01-21T06:24:02.980Z,-3.31
2019-01-21T06:25:02.307Z,-3.31
2019-01-21T06:26:02.665Z,-3.25
2019-01-21T06:27:03.198Z,-3.31
2019-01-21T06:28:02.615Z,-3.25
2019-01-21T06:29:02.941Z,-3.31
2019-01-21T06:30:03.246Z,-3.43
2019-01-21T06:31:02.518Z,-3.31
2019-01-21T06:32:02.921Z,-3.31
2019-01-21T06:33:04.362Z,-3.31
2019-01-21T06:34:02.763Z,-3.31
2019-01-21T06:35:03.083Z,-3.25
2019-01-21T06:36:02.360Z,-3.31
2019-01-21T06:37:02.779Z,-3.25
2019-01-21T06:38:03.105Z,-3.25
2019-01-21T06:39:02.501Z,-3.25
2019-01-21T06:40:02.810Z,-3.18
2019-01-21T06:41:03.082Z,-3.18
2019-01-21T06:42:02.382Z,-3.43
2019-01-21T06:43:02.710Z,-3.31
2019-01-21T06:44:03.015Z,-3.31
2019-01-21T06:45:02.295Z,-3.18
2019-01-21T06:46:02.598Z,-3.43
2019-01-21T06:47:02.841Z,-3.37
2019-01-21T06:48:03.190Z,-3.31
2019-01-21T06:49:04.706Z,-3.31
2019-01-21T06:50:02.296Z,-3.31
2019-01-21T06:51:02.623Z,-3.31
2019-01-21T06:52:02.919Z,-3.62
2019-01-21T06:53:03.265Z,-3.56
2019-01-21T06:54:02.565Z,-3.43
2019-01-21T06:55:02.847Z,-3.43
2019-01-21T06:56:03.244Z,-3.5
2019-01-21T06:57:02.514Z,-3.37
2019-01-21T06:58:02.801Z,-3.37
2019-01-21T06:59:03.105Z,-3.37
2019-01-21T07:00:02.360Z,-3.43
2019-01-21T07:01:02.684Z,-3.43
2019-01-21T07:02:03.006Z,-3.43
2019-01-21T07:03:02.297Z,-3.43
2019-01-21T07:04:02.662Z,-3.43
2019-01-21T07:05:02.932Z,-3.37
2019-01-21T07:06:03.170Z,-3.31
2019-01-21T07:07:02.456Z,-3.31
2019-01-21T07:08:02.766Z,-3.37
2019-01-21T07:09:03.193Z,-3.5
2019-01-21T07:10:02.541Z,-3.43
2019-01-21T07:11:02.907Z,-3.5
2019-01-21T07:12:03.208Z,-3.37
2019-01-21T07:13:02.529Z,-3.31
2019-01-21T07:14:02.874Z,-3.31
2019-01-21T07:15:03.158Z,-3.31
2019-01-21T07:16:02.449Z,-3.31
2019-01-21T07:17:02.766Z,-3.5
2019-01-21T07:18:03.085Z,-3.37
2019-01-21T07:19:02.410Z,-3.56
2019-01-21T07:20:02.691Z,-3.5
2019-01-21T07:21:02.998Z,-3.43
2019-01-21T07:22:02.288Z,-3.43
2019-01-21T07:23:02.608Z,-3.43
2019-01-21T07:24:02.983Z,-3.43
2019-01-21T07:25:02.290Z,-3.43
2019-01-21T07:26:02.596Z,-3.37
2019-01-21T07:27:02.926Z,-3.31
2019-01-21T07:28:03.303Z,-3.25
2019-01-21T07:29:02.606Z,-3.37
2019-01-21T07:30:04.299Z,-3.5
2019-01-21T07:31:02.690Z,-3.31
2019-01-21T07:32:02.999Z,-3.31
2019-01-21T07:33:02.289Z,-3.31
2019-01-21T07:34:02.618Z,-3.31
2019-01-21T07:35:02.977Z,-3.43
2019-01-21T07:36:02.338Z,-3.43
2019-01-21T07:37:02.694Z,-3.5
2019-01-21T07:38:03.004Z,-3.5
2019-01-21T07:39:02.293Z,-3.43
2019-01-21T07:40:02.660Z,-3.43
2019-01-21T07:41:02.951Z,-3.37
2019-01-21T07:42:03.240Z,-3.37
2019-01-21T07:43:02.544Z,-3.31
2019-01-21T07:44:02.941Z,-3.31
2019-01-21T07:45:03.246Z,-3.62
2019-01-21T07:46:02.607Z,-3.5
2019-01-21T07:47:02.926Z,-3.43
2019-01-21T07:48:03.253Z,-3.37
2019-01-21T07:49:02.526Z,-3.43
2019-01-21T07:50:02.847Z,-3.75
2019-01-21T07:51:03.219Z,-3.56
2019-01-21T07:52:02.530Z,-3.5
2019-01-21T07:53:02.839Z,-3.5
2019-01-21T07:54:03.183Z,-3.5
2019-01-21T07:55:02.460Z,-3.37
2019-01-21T07:56:02.902Z,-3.43
2019-01-21T07:57:03.169Z,-3.43
2019-01-21T07:58:02.450Z,-3.62
2019-01-21T07:59:02.770Z,-3.62
2019-01-21T08:00:03.138Z,-3.5
2019-01-21T08:01:02.444Z,-3.5
2019-01-21T08:02:02.837Z,-3.56
2019-01-21T08:03:03.165Z,-3.62
2019-01-21T08:04:02.454Z,-3.5
2019-01-21T08:05:02.765Z,-3.5
2019-01-21T08:06:03.082Z,-3.5
2019-01-21T08:07:02.446Z,-3.31
2019-01-21T08:08:02.798Z,-3.43
2019-01-21T08:09:03.084Z,-3.37
2019-01-21T08:10:02.379Z,-3.37
2019-01-21T08:11:02.690Z,-3.25
2019-01-21T08:12:03.084Z,-3.31
2019-01-21T08:13:02.360Z,-3.43
2019-01-21T08:14:02.685Z,-3.43
2019-01-21T08:15:03.010Z,-3.37
2019-01-21T08:16:02.345Z,-3.25
2019-01-21T08:17:02.774Z,-3.31
2019-01-21T08:18:03.208Z,-3.37
2019-01-21T08:19:02.517Z,-3.37
2019-01-21T08:20:02.852Z,-3.25
2019-01-21T08:21:03.180Z,-3.25
2019-01-21T08:22:02.451Z,-3.18
2019-01-21T08:23:02.838Z,-3.37
2019-01-21T08:24:03.165Z,-3.31
2019-01-21T08:25:02.447Z,-3.37
2019-01-21T08:26:02.762Z,-3.31
2019-01-21T08:27:03.092Z,-3.31
2019-01-21T08:28:02.439Z,-3.43
2019-01-21T08:29:02.765Z,-3.31
2019-01-21T08:30:03.084Z,-3.37
2019-01-21T08:31:02.646Z,-3.25
2019-01-21T08:32:02.982Z,-3.31
2019-01-21T08:33:02.353Z,-3.37
2019-01-21T08:34:02.679Z,-3.18
2019-01-21T08:35:03.008Z,-3.18
2019-01-21T08:36:02.291Z,-3.25
2019-01-21T08:37:02.618Z,-3.43
2019-01-21T08:38:03.023Z,-3.31
2019-01-21T08:39:02.286Z,-3.37
2019-01-21T08:40:02.603Z,-3.43
2019-01-21T08:41:02.947Z,-3.31
2019-01-21T08:42:03.242Z,-3.43
2019-01-21T08:43:02.526Z,-3.31
2019-01-21T08:44:02.870Z,-3.31
2019-01-21T08:45:03.170Z,-3.31
2019-01-21T08:46:02.502Z,-3.31
2019-01-21T08:47:02.837Z,-3.25
2019-01-21T08:48:03.158Z,-3.18
2019-01-21T08:49:02.470Z,-3.37
2019-01-21T08:50:02.834Z,-3.62
2019-01-21T08:51:04.048Z,-3.31
2019-01-21T08:52:02.366Z,-3.25
2019-01-21T08:53:02.686Z,-3.37
2019-01-21T08:54:03.032Z,-3.37
2019-01-21T08:55:02.255Z,-3.31
2019-01-21T08:56:02.528Z,-3.31
2019-01-21T08:57:02.840Z,-3.37
2019-01-21T08:58:04.573Z,-3.25
2019-01-21T08:59:02.984Z,-3.25
2019-01-21T09:00:02.294Z,-3.25
2019-01-21T09:01:02.661Z,-3.37
2019-01-21T09:02:02.955Z,-3.18
2019-01-21T09:03:02.281Z,-3.31
2019-01-21T09:04:02.610Z,-3.18
2019-01-21T09:05:02.996Z,-3.18
2019-01-21T09:06:02.292Z,-3.18
2019-01-21T09:07:02.607Z,-3.25
2019-01-21T09:08:02.936Z,-3.25
2019-01-21T09:09:02.302Z,-3.56
2019-01-21T09:10:02.689Z,-3.56
2019-01-21T09:11:03.882Z,-3.25
2019-01-21T09:12:03.158Z,-3.5
2019-01-21T09:13:02.441Z,-3.37
2019-01-21T09:14:02.775Z,-3.31
2019-01-21T09:15:03.137Z,-3.5
2019-01-21T09:16:02.467Z,-3.62
2019-01-21T09:17:02.818Z,-3.5
2019-01-21T09:18:03.087Z,-3.31
2019-01-21T09:19:02.362Z,-3.18
2019-01-21T09:20:02.743Z,-3.37
2019-01-21T09:21:02.985Z,-3.37
2019-01-21T09:22:02.289Z,-3.31
2019-01-21T09:23:02.604Z,-3.12
2019-01-21T09:24:03.807Z,-3.06
2019-01-21T09:25:03.090Z,-3.06
2019-01-21T09:26:02.445Z,-3.06
2019-01-21T09:27:02.769Z,-3.25
2019-01-21T09:28:03.079Z,-3.25
2019-01-21T09:29:02.368Z,-3.31
2019-01-21T09:30:02.722Z,-3.12
2019-01-21T09:31:03.034Z,-3
2019-01-21T09:32:02.463Z,-3
2019-01-21T09:33:02.769Z,-2.93
2019-01-21T09:34:03.099Z,-3.18
2019-01-21T09:35:02.366Z,-3.18
2019-01-21T09:36:02.763Z,-3.25
2019-01-21T09:37:03.051Z,-3.37
2019-01-21T09:38:02.387Z,-3.25
2019-01-21T09:39:02.679Z,-3.31
2019-01-21T09:40:03.005Z,-3.18
2019-01-21T09:41:02.310Z,-3.25
2019-01-21T09:42:02.622Z,-3.18
2019-01-21T09:43:02.927Z,-3.31
2019-01-21T09:44:03.238Z,-3.31
2019-01-21T09:45:02.523Z,-3.43
2019-01-21T09:46:02.851Z,-3.12
2019-01-21T09:47:03.221Z,-3.12
2019-01-21T09:48:02.624Z,-3.06
2019-01-21T09:49:02.922Z,-2.93
2019-01-21T09:50:03.265Z,-2.81
2019-01-21T09:51:02.607Z,-2.87
2019-01-21T09:52:05.027Z,-2.87
2019-01-21T09:53:02.440Z,-2.93
2019-01-21T09:54:02.766Z,-2.81
2019-01-21T09:55:03.972Z,-2.75
2019-01-21T09:56:03.175Z,-2.81
2019-01-21T09:57:02.495Z,-2.93
2019-01-21T09:58:02.765Z,-2.93
2019-01-21T09:59:03.096Z,-3
2019-01-21T10:00:02.361Z,-3
2019-01-21T10:01:02.679Z,-3.06
2019-01-21T10:02:03.063Z,-3.12
2019-01-21T10:03:02.455Z,-3.12
2019-01-21T10:04:02.748Z,-3.18
2019-01-21T10:05:02.998Z,-3.25
2019-01-21T10:06:02.290Z,-3.06
2019-01-21T10:07:02.669Z,-2.93
2019-01-21T10:08:03.029Z,-3
2019-01-21T10:09:02.281Z,-3
2019-01-21T10:10:02.610Z,-2.87
2019-01-21T10:11:03.442Z,-2.87
2019-01-21T10:12:03.007Z,-2.81
2019-01-21T10:13:02.312Z,-2.68
2019-01-21T10:14:02.602Z,-2.75
2019-01-21T10:15:03.810Z,-2.68
2019-01-21T10:16:03.082Z,-2.75
2019-01-21T10:17:02.382Z,-2.68
2019-01-21T10:18:02.823Z,-2.56
2019-01-21T10:19:03.101Z,-2.62
2019-01-21T10:20:02.379Z,-2.87
2019-01-21T10:21:02.708Z,-2.93
2019-01-21T10:22:03.019Z,-2.68
2019-01-21T10:23:02.344Z,-2.75
2019-01-21T10:24:02.672Z,-2.68
2019-01-21T10:25:02.934Z,-2.62
2019-01-21T10:26:03.256Z,-2.75
2019-01-21T10:27:02.543Z,-2.68
2019-01-21T10:28:02.866Z,-2.68
2019-01-21T10:29:03.184Z,-2.62
2019-01-21T10:30:02.444Z,-2.62
2019-01-21T10:31:02.775Z,-2.62
2019-01-21T10:32:03.104Z,-2.56
2019-01-21T10:33:02.364Z,-2.56
2019-01-21T10:34:02.744Z,-2.56
2019-01-21T10:35:03.061Z,-2.62
2019-01-21T10:36:02.370Z,-2.5
2019-01-21T10:37:02.682Z,-2.43
2019-01-21T10:38:03.062Z,-2.43
2019-01-21T10:39:02.383Z,-2.5
2019-01-21T10:40:02.715Z,-2.5
2019-01-21T10:41:03.024Z,-2.5
2019-01-21T10:42:02.298Z,-2.62
2019-01-21T10:43:02.607Z,-2.62
2019-01-21T10:44:02.938Z,-2.5
2019-01-21T10:45:03.313Z,-2.5
2019-01-21T10:46:02.663Z,-2.43
2019-01-21T10:47:03.007Z,-2.43
2019-01-21T10:48:02.293Z,-2.43
2019-01-21T10:49:02.622Z,-2.5
2019-01-21T10:50:02.991Z,-2.43
2019-01-21T10:51:02.365Z,-2.43
2019-01-21T10:52:02.708Z,-2.5
2019-01-21T10:53:02.993Z,-2.5
2019-01-21T10:54:02.274Z,-2.5
2019-01-21T10:55:02.687Z,-2.5
2019-01-21T10:56:03.006Z,-2.5
2019-01-21T10:57:03.173Z,-2.43
2019-01-21T10:58:02.444Z,-2.5
2019-01-21T10:59:02.766Z,-2.43
2019-01-21T11:00:03.090Z,-2.43
2019-01-21T11:01:02.427Z,-2.62
2019-01-21T11:02:02.692Z,-2.43
2019-01-21T11:03:03.013Z,-2.43
2019-01-21T11:04:02.303Z,-2.37
2019-01-21T11:05:02.689Z,-2.31
2019-01-21T11:06:03.074Z,-2.18
2019-01-21T11:07:02.363Z,-2.18
2019-01-21T11:08:02.698Z,-2.18
2019-01-21T11:09:03.009Z,-2.25
2019-01-21T11:10:02.375Z,-2.18
2019-01-21T11:11:02.707Z,-2.25
2019-01-21T11:12:03.009Z,-2.18
2019-01-21T11:13:02.301Z,-2.25
2019-01-21T11:14:02.624Z,-2.37
2019-01-21T11:15:02.982Z,-2.37
2019-01-21T11:16:02.339Z,-2.43
2019-01-21T11:17:02.613Z,-2.43
2019-01-21T11:18:02.928Z,-2.37
2019-01-21T11:19:03.253Z,-2.37
2019-01-21T11:20:04.026Z,-2.31
2019-01-21T11:21:02.742Z,-2.43
2019-01-21T11:22:03.021Z,-2.25
2019-01-21T11:23:02.378Z,-2.18
2019-01-21T11:24:02.694Z,-2.25
2019-01-21T11:25:03.068Z,-2.12
2019-01-21T11:26:02.379Z,-2.12
2019-01-21T11:27:02.708Z,-2.25
2019-01-21T11:28:03.012Z,-2.18
2019-01-21T11:29:02.285Z,-2.12
2019-01-21T11:30:02.609Z,-2.12
2019-01-21T11:31:02.949Z,-2.12
2019-01-21T11:32:03.260Z,-2.12
2019-01-21T11:33:02.529Z,-2.12
2019-01-21T11:34:02.836Z,-2.25
2019-01-21T11:35:03.220Z,-2.12
2019-01-21T11:36:02.537Z,-2.06
2019-01-21T11:37:02.977Z,-2
2019-01-21T11:38:02.347Z,-1.87
2019-01-21T11:39:02.713Z,-1.93
2019-01-21T11:40:03.001Z,-1.93
2019-01-21T11:41:03.193Z,-1.93
2019-01-21T11:42:02.466Z,-2
2019-01-21T11:43:02.832Z,-2.12
2019-01-21T11:44:03.156Z,-2.06
2019-01-21T11:45:02.452Z,-2.18
2019-01-21T11:46:02.773Z,-2.12
2019-01-21T11:47:03.958Z,-2
2019-01-21T11:48:03.297Z,-2
2019-01-21T11:49:02.632Z,-1.93
2019-01-21T11:50:02.982Z,-2
2019-01-21T11:51:02.347Z,-1.87
2019-01-21T11:52:02.620Z,-1.93
2019-01-21T11:53:03.039Z,-1.81
2019-01-21T11:54:02.374Z,-1.68
2019-01-21T11:55:02.688Z,-1.62
2019-01-21T11:56:03.015Z,-1.68
2019-01-21T11:57:02.362Z,-1.75
2019-01-21T11:58:02.737Z,-1.81
2019-01-21T11:59:03.899Z,-1.81
2019-01-21T12:00:03.172Z,-1.93
2019-01-21T12:01:02.454Z,-2.06
2019-01-21T12:02:02.786Z,-2.06
2019-01-21T12:03:03.138Z,-2.12
2019-01-21T12:04:02.539Z,-2.06
2019-01-21T12:05:02.837Z,-2.06
2019-01-21T12:06:03.174Z,-2
2019-01-21T12:07:02.488Z,-1.87
2019-01-21T12:08:02.832Z,-1.93
2019-01-21T12:09:03.175Z,-1.81
2019-01-21T12:10:02.449Z,-1.81
2019-01-21T12:11:02.768Z,-1.68
2019-01-21T12:12:03.085Z,-1.81
2019-01-21T12:13:02.357Z,-1.75
2019-01-21T12:14:02.635Z,-1.68
2019-01-21T12:15:03.816Z,-1.62
2019-01-21T12:16:03.104Z,-1.68
2019-01-21T12:17:02.456Z,-1.68
2019-01-21T12:18:02.770Z,-1.62
2019-01-21T12:19:03.165Z,-1.62
2019-01-21T12:20:02.446Z,-1.56
2019-01-21T12:21:02.765Z,-1.62
2019-01-21T12:22:03.142Z,-1.62
2019-01-21T12:23:02.448Z,-1.62
2019-01-21T12:24:02.823Z,-1.62
2019-01-21T12:25:03.104Z,-1.68
2019-01-21T12:26:02.365Z,-1.68
2019-01-21T12:27:02.691Z,-1.62
2019-01-21T12:28:03.022Z,-1.62
2019-01-21T12:29:02.294Z,-1.56
2019-01-21T12:30:02.627Z,-1.56
2019-01-21T12:31:02.920Z,-1.56
2019-01-21T12:32:03.251Z,-1.56
2019-01-21T12:33:02.530Z,-1.62
2019-01-21T12:34:03.394Z,-1.5
2019-01-21T12:35:02.751Z,-1.62
2019-01-21T12:36:03.091Z,-1.68
2019-01-21T12:37:02.383Z,-1.68
2019-01-21T12:38:02.680Z,-1.68
2019-01-21T12:39:03.010Z,-1.62
2019-01-21T12:40:02.378Z,-1.62
2019-01-21T12:41:02.684Z,-1.68
2019-01-21T12:42:03.020Z,-1.68
2019-01-21T12:43:02.298Z,-1.68
2019-01-21T12:44:02.601Z,-1.68
2019-01-21T12:45:03.014Z,-1.68
2019-01-21T12:46:02.309Z,-1.68
2019-01-21T12:47:02.606Z,-1.68
2019-01-21T12:48:02.940Z,-1.62
2019-01-21T12:49:03.407Z,-1.68
2019-01-21T12:50:02.687Z,-1.68
2019-01-21T12:51:03.037Z,-1.68
2019-01-21T12:52:02.419Z,-1.75
2019-01-21T12:53:02.707Z,-1.68
2019-01-21T12:54:03.000Z,-1.68
2019-01-21T12:55:02.288Z,-1.75
2019-01-21T12:56:02.653Z,-1.75